sensor_id;sensor_type;location;lat;lon;timestamp;pressure;altitude;pressure_sealevel;temperature;humidity
83246;BME280;73140;46.754;17.714;2023-11-21T00:01:12;99090.44;;;7.73;91.03
83246;BME280;73140;46.754;17.714;2023-11-21T00:03:38;99089.63;;;7.75;91.24
83246;BME280;73140;46.754;17.714;2023-11-21T00:06:05;99113.50;;;7.90;90.25
83246;BME280;73140;46.754;17.714;2023-11-21T00:08:34;99124.03;;;7.90;90.09
83246;BME280;73140;46.754;17.714;2023-11-21T00:11:02;99096.78;;;7.88;89.92
83246;BME280;73140;46.754;17.714;2023-11-21T00:13:31;99089.81;;;7.90;90.38
83246;BME280;73140;46.754;17.714;2023-11-21T00:15:57;99074.97;;;7.95;90.00
83246;BME280;73140;46.754;17.714;2023-11-21T00:18:23;99067.03;;;7.94;90.36
83246;BME280;73140;46.754;17.714;2023-11-21T00:20:49;99030.81;;;7.73;90.21
83246;BME280;73140;46.754;17.714;2023-11-21T00:23:17;99105.03;;;8.16;90.21
83246;BME280;73140;46.754;17.714;2023-11-21T00:25:45;99053.91;;;7.95;89.09
83246;BME280;73140;46.754;17.714;2023-11-21T00:28:13;99016.84;;;7.80;90.03
83246;BME280;73140;46.754;17.714;2023-11-21T00:30:39;99137.63;;;8.25;90.62
83246;BME280;73140;46.754;17.714;2023-11-21T00:33:05;99095.94;;;7.89;90.78
83246;BME280;73140;46.754;17.714;2023-11-21T00:35:31;99081.09;;;7.94;91.01
83246;BME280;73140;46.754;17.714;2023-11-21T00:37:57;99080.19;;;7.94;90.15
83246;BME280;73140;46.754;17.714;2023-11-21T00:40:25;99157.13;;;8.36;90.71
83246;BME280;73140;46.754;17.714;2023-11-21T00:42:51;99112.25;;;8.29;89.58
83246;BME280;73140;46.754;17.714;2023-11-21T00:45:19;99031.91;;;7.93;88.86
83246;BME280;73140;46.754;17.714;2023-11-21T00:47:45;99109.72;;;8.39;89.07
83246;BME280;73140;46.754;17.714;2023-11-21T00:50:11;99045.31;;;8.15;88.75
83246;BME280;73140;46.754;17.714;2023-11-21T00:52:37;99094.88;;;8.49;87.94
83246;BME280;73140;46.754;17.714;2023-11-21T00:55:04;99123.03;;;8.53;88.37
83246;BME280;73140;46.754;17.714;2023-11-21T00:57:30;99077.28;;;8.48;87.52
83246;BME280;73140;46.754;17.714;2023-11-21T00:59:56;99062.25;;;8.36;87.47
83246;BME280;73140;46.754;17.714;2023-11-21T01:02:26;99125.84;;;8.71;87.49
83246;BME280;73140;46.754;17.714;2023-11-21T01:04:55;99105.41;;;8.46;88.35
83246;BME280;73140;46.754;17.714;2023-11-21T01:07:21;99076.34;;;8.40;88.75
83246;BME280;73140;46.754;17.714;2023-11-21T01:09:48;99049.81;;;8.25;88.02
83246;BME280;73140;46.754;17.714;2023-11-21T01:12:16;99135.63;;;8.81;88.63
83246;BME280;73140;46.754;17.714;2023-11-21T01:14:43;99117.91;;;8.65;88.76
83246;BME280;73140;46.754;17.714;2023-11-21T01:17:11;99095.09;;;8.70;88.71
83246;BME280;73140;46.754;17.714;2023-11-21T01:19:42;99077.38;;;8.54;88.47
83246;BME280;73140;46.754;17.714;2023-11-21T01:22:08;99110.22;;;8.89;88.26
83246;BME280;73140;46.754;17.714;2023-11-21T01:24:34;99052.00;;;8.65;87.35
83246;BME280;73140;46.754;17.714;2023-11-21T01:27:00;99057.22;;;8.64;87.51
83246;BME280;73140;46.754;17.714;2023-11-21T01:29:27;99078.44;;;8.76;88.36
83246;BME280;73140;46.754;17.714;2023-11-21T01:31:55;99042.28;;;8.61;88.36
83246;BME280;73140;46.754;17.714;2023-11-21T01:34:21;99049.38;;;8.71;88.16
83246;BME280;73140;46.754;17.714;2023-11-21T01:36:49;99085.56;;;8.90;87.83
83246;BME280;73140;46.754;17.714;2023-11-21T01:39:15;99039.63;;;8.58;88.49
83246;BME280;73140;46.754;17.714;2023-11-21T01:41:43;99019.34;;;8.51;88.82
83246;BME280;73140;46.754;17.714;2023-11-21T01:44:12;99042.09;;;8.43;88.96
83246;BME280;73140;46.754;17.714;2023-11-21T01:46:39;98991.75;;;8.11;88.63
83246;BME280;73140;46.754;17.714;2023-11-21T01:49:06;99055.28;;;8.41;89.48
83246;BME280;73140;46.754;17.714;2023-11-21T01:51:32;98980.25;;;8.04;89.38
83246;BME280;73140;46.754;17.714;2023-11-21T01:54:03;99021.63;;;8.15;90.61
83246;BME280;73140;46.754;17.714;2023-11-21T01:56:31;98980.00;;;7.82;90.73
83246;BME280;73140;46.754;17.714;2023-11-21T01:58:58;98986.28;;;7.91;90.33
83246;BME280;73140;46.754;17.714;2023-11-21T02:01:24;99070.19;;;8.38;90.15
83246;BME280;73140;46.754;17.714;2023-11-21T02:03:52;99018.16;;;8.20;89.93
83246;BME280;73140;46.754;17.714;2023-11-21T02:06:19;99003.22;;;8.19;89.61
83246;BME280;73140;46.754;17.714;2023-11-21T02:08:45;99020.13;;;8.38;89.10
83246;BME280;73140;46.754;17.714;2023-11-21T02:11:13;99008.75;;;8.45;88.88
83246;BME280;73140;46.754;17.714;2023-11-21T02:13:39;99005.28;;;8.52;88.40
83246;BME280;73140;46.754;17.714;2023-11-21T02:16:13;98996.56;;;8.59;87.50
83246;BME280;73140;46.754;17.714;2023-11-21T02:18:39;99065.44;;;8.98;88.06
83246;BME280;73140;46.754;17.714;2023-11-21T02:21:06;99041.63;;;8.91;87.92
83246;BME280;73140;46.754;17.714;2023-11-21T02:23:33;99067.25;;;9.06;88.51
83246;BME280;73140;46.754;17.714;2023-11-21T02:26:02;98995.88;;;8.81;87.70
83246;BME280;73140;46.754;17.714;2023-11-21T02:28:31;99028.47;;;8.95;87.79
83246;BME280;73140;46.754;17.714;2023-11-21T02:30:59;98993.25;;;8.87;87.52
83246;BME280;73140;46.754;17.714;2023-11-21T02:33:25;98958.03;;;8.73;88.50
83246;BME280;73140;46.754;17.714;2023-11-21T02:35:52;98984.50;;;8.91;87.64
83246;BME280;73140;46.754;17.714;2023-11-21T02:38:20;99024.13;;;9.02;88.16
83246;BME280;73140;46.754;17.714;2023-11-21T02:40:48;98951.81;;;8.68;87.53
83246;BME280;73140;46.754;17.714;2023-11-21T02:43:14;98985.34;;;8.87;87.17
83246;BME280;73140;46.754;17.714;2023-11-21T02:45:40;99013.59;;;9.07;87.57
83246;BME280;73140;46.754;17.714;2023-11-21T02:48:07;98982.69;;;8.84;88.00
83246;BME280;73140;46.754;17.714;2023-11-21T02:50:34;99019.78;;;9.09;86.47
83246;BME280;73140;46.754;17.714;2023-11-21T02:53:03;99041.78;;;9.14;86.50
83246;BME280;73140;46.754;17.714;2023-11-21T02:55:31;98966.00;;;8.84;85.84
83246;BME280;73140;46.754;17.714;2023-11-21T02:58:02;98970.41;;;8.88;86.92
83246;BME280;73140;46.754;17.714;2023-11-21T03:00:29;98986.13;;;8.74;88.41
83246;BME280;73140;46.754;17.714;2023-11-21T03:02:56;98959.56;;;8.47;88.09
83246;BME280;73140;46.754;17.714;2023-11-21T03:05:22;98978.13;;;8.58;89.70
83246;BME280;73140;46.754;17.714;2023-11-21T03:07:48;99029.31;;;8.85;90.26
83246;BME280;73140;46.754;17.714;2023-11-21T03:10:14;98990.31;;;8.48;88.93
83246;BME280;73140;46.754;17.714;2023-11-21T03:12:40;98957.63;;;8.28;89.38
83246;BME280;73140;46.754;17.714;2023-11-21T03:15:09;98941.69;;;8.13;89.48
83246;BME280;73140;46.754;17.714;2023-11-21T03:17:37;99003.56;;;8.54;91.13
83246;BME280;73140;46.754;17.714;2023-11-21T03:20:05;98961.16;;;8.27;91.00
83246;BME280;73140;46.754;17.714;2023-11-21T03:22:31;99003.50;;;8.48;90.30
83246;BME280;73140;46.754;17.714;2023-11-21T03:25:03;98970.88;;;8.31;89.57
83246;BME280;73140;46.754;17.714;2023-11-21T03:27:31;99041.53;;;8.77;88.98
83246;BME280;73140;46.754;17.714;2023-11-21T03:29:57;99011.63;;;8.75;88.22
83246;BME280;73140;46.754;17.714;2023-11-21T03:32:25;98954.22;;;8.35;88.80
83246;BME280;73140;46.754;17.714;2023-11-21T03:34:55;98985.00;;;8.39;88.25
83246;BME280;73140;46.754;17.714;2023-11-21T03:37:24;99007.94;;;8.52;88.62
83246;BME280;73140;46.754;17.714;2023-11-21T03:39:50;99021.19;;;8.63;87.77
83246;BME280;73140;46.754;17.714;2023-11-21T03:42:17;99035.31;;;8.69;88.27
83246;BME280;73140;46.754;17.714;2023-11-21T03:44:43;98968.16;;;8.25;88.54
83246;BME280;73140;46.754;17.714;2023-11-21T03:47:09;99024.59;;;8.51;89.21
83246;BME280;73140;46.754;17.714;2023-11-21T03:49:37;98968.09;;;8.20;89.72
83246;BME280;73140;46.754;17.714;2023-11-21T03:52:04;99028.13;;;8.50;89.69
83246;BME280;73140;46.754;17.714;2023-11-21T03:54:31;99015.75;;;8.38;89.13
83246;BME280;73140;46.754;17.714;2023-11-21T03:56:57;99029.59;;;8.24;89.27
83246;BME280;73140;46.754;17.714;2023-11-21T03:59:23;99026.94;;;8.21;88.90
83246;BME280;73140;46.754;17.714;2023-11-21T04:01:55;99041.16;;;8.33;87.18
83246;BME280;73140;46.754;17.714;2023-11-21T04:04:22;99098.75;;;8.90;84.94
83246;BME280;73140;46.754;17.714;2023-11-21T04:06:51;99056.63;;;8.93;83.92
83246;BME280;73140;46.754;17.714;2023-11-21T04:09:17;99015.22;;;8.85;82.29
83246;BME280;73140;46.754;17.714;2023-11-21T04:11:44;99055.94;;;9.26;81.41
83246;BME280;73140;46.754;17.714;2023-11-21T04:14:11;99064.91;;;9.51;80.14
83246;BME280;73140;46.754;17.714;2023-11-21T04:16:40;99086.16;;;9.84;79.06
83246;BME280;73140;46.754;17.714;2023-11-21T04:19:07;99058.94;;;9.97;77.32
83246;BME280;73140;46.754;17.714;2023-11-21T04:21:43;99041.25;;;9.84;77.02
83246;BME280;73140;46.754;17.714;2023-11-21T04:24:36;99084.47;;;9.95;78.06
83246;BME280;73140;46.754;17.714;2023-11-21T04:27:02;99095.00;;;9.86;78.35
83246;BME280;73140;46.754;17.714;2023-11-21T04:29:28;99053.47;;;9.58;78.88
83246;BME280;73140;46.754;17.714;2023-11-21T04:31:57;99106.38;;;9.75;80.02
83246;BME280;73140;46.754;17.714;2023-11-21T04:34:32;99114.28;;;9.73;80.88
83246;BME280;73140;46.754;17.714;2023-11-21T04:36:58;99119.53;;;9.64;82.55
83246;BME280;73140;46.754;17.714;2023-11-21T04:39:26;99070.97;;;9.35;83.33
83246;BME280;73140;46.754;17.714;2023-11-21T04:41:54;99124.75;;;9.54;84.81
83246;BME280;73140;46.754;17.714;2023-11-21T04:44:20;99116.72;;;9.35;85.06
83246;BME280;73140;46.754;17.714;2023-11-21T04:46:46;99155.56;;;9.56;85.13
83246;BME280;73140;46.754;17.714;2023-11-21T04:49:12;99131.69;;;9.36;83.78
83246;BME280;73140;46.754;17.714;2023-11-21T04:51:38;99113.25;;;9.44;84.82
83246;BME280;73140;46.754;17.714;2023-11-21T04:54:04;99081.34;;;9.14;85.46
83246;BME280;73140;46.754;17.714;2023-11-21T04:56:31;99127.25;;;9.34;86.79
83246;BME280;73140;46.754;17.714;2023-11-21T04:59:02;99115.78;;;9.27;86.00
83246;BME280;73140;46.754;17.714;2023-11-21T05:01:28;99169.69;;;9.60;86.21
83246;BME280;73140;46.754;17.714;2023-11-21T05:03:54;99077.72;;;8.96;87.32
83246;BME280;73140;46.754;17.714;2023-11-21T05:06:21;99087.47;;;9.05;87.21
83246;BME280;73140;46.754;17.714;2023-11-21T05:08:47;99135.97;;;9.24;87.19
83246;BME280;73140;46.754;17.714;2023-11-21T05:11:23;99137.75;;;9.25;87.83
83246;BME280;73140;46.754;17.714;2023-11-21T05:13:50;99135.97;;;9.21;89.01
83246;BME280;73140;46.754;17.714;2023-11-21T05:16:17;99133.31;;;9.21;88.15
83246;BME280;73140;46.754;17.714;2023-11-21T05:18:43;99173.88;;;9.35;88.12
83246;BME280;73140;46.754;17.714;2023-11-21T05:21:10;99090.00;;;8.94;88.71
83246;BME280;73140;46.754;17.714;2023-11-21T05:23:36;99138.63;;;9.24;88.70
83246;BME280;73140;46.754;17.714;2023-11-21T05:26:03;99090.00;;;8.94;88.97
83246;BME280;73140;46.754;17.714;2023-11-21T05:28:29;99144.72;;;9.17;89.55
83246;BME280;73140;46.754;17.714;2023-11-21T05:30:55;99128.78;;;9.05;88.99
83246;BME280;73140;46.754;17.714;2023-11-21T05:33:24;99129.78;;;9.19;87.97
83246;BME280;73140;46.754;17.714;2023-11-21T05:35:51;99148.31;;;9.28;88.43
83246;BME280;73140;46.754;17.714;2023-11-21T05:38:17;99108.50;;;8.96;88.50
83246;BME280;73140;46.754;17.714;2023-11-21T05:40:43;99131.41;;;9.01;89.35
83246;BME280;73140;46.754;17.714;2023-11-21T05:43:14;99111.28;;;9.13;87.95
83246;BME280;73140;46.754;17.714;2023-11-21T05:45:41;99174.81;;;9.37;88.29
83246;BME280;73140;46.754;17.714;2023-11-21T05:48:07;99123.53;;;9.05;89.24
83246;BME280;73140;46.754;17.714;2023-11-21T05:50:34;99149.09;;;9.15;90.00
83246;BME280;73140;46.754;17.714;2023-11-21T05:53:00;99118.16;;;8.95;89.83
83246;BME280;73140;46.754;17.714;2023-11-21T05:55:26;99156.91;;;9.02;90.38
83246;BME280;73140;46.754;17.714;2023-11-21T05:57:52;99185.16;;;9.13;90.84
83246;BME280;73140;46.754;17.714;2023-11-21T06:00:19;99148.09;;;8.97;90.71
83246;BME280;73140;46.754;17.714;2023-11-21T06:02:48;99187.88;;;9.23;90.45
83246;BME280;73140;46.754;17.714;2023-11-21T06:05:17;99188.75;;;9.24;90.84
83246;BME280;73140;46.754;17.714;2023-11-21T06:07:45;99175.53;;;9.21;89.50
83246;BME280;73140;46.754;17.714;2023-11-21T06:10:12;99093.44;;;8.81;89.24
83246;BME280;73140;46.754;17.714;2023-11-21T06:12:40;99156.91;;;9.02;89.76
83246;BME280;73140;46.754;17.714;2023-11-21T06:15:09;99116.31;;;8.84;90.06
83246;BME280;73140;46.754;17.714;2023-11-21T06:17:39;99099.63;;;8.88;90.49
83246;BME280;73140;46.754;17.714;2023-11-21T06:20:07;99157.94;;;9.23;87.96
83246;BME280;73140;46.754;17.714;2023-11-21T06:22:40;99172.03;;;9.23;89.58
83246;BME280;73140;46.754;17.714;2023-11-21T06:25:12;99138.31;;;8.90;89.91
83246;BME280;73140;46.754;17.714;2023-11-21T06:27:42;99195.69;;;9.13;89.76
83246;BME280;73140;46.754;17.714;2023-11-21T06:30:09;99187.72;;;9.10;90.46
83246;BME280;73140;46.754;17.714;2023-11-21T06:32:35;99166.63;;;9.08;90.36
83246;BME280;73140;46.754;17.714;2023-11-21T06:35:02;99190.50;;;9.20;90.97
83246;BME280;73140;46.754;17.714;2023-11-21T06:37:30;99189.56;;;9.15;90.05
83246;BME280;73140;46.754;17.714;2023-11-21T06:39:56;99186.81;;;9.03;89.14
83246;BME280;73140;46.754;17.714;2023-11-21T06:42:25;99206.31;;;9.22;89.18
83246;BME280;73140;46.754;17.714;2023-11-21T06:44:51;99217.78;;;9.24;90.06
83246;BME280;73140;46.754;17.714;2023-11-21T06:47:17;99164.81;;;9.01;90.80
83246;BME280;73140;46.754;17.714;2023-11-21T06:49:46;99196.47;;;9.01;91.08
83246;BME280;73140;46.754;17.714;2023-11-21T06:52:13;99202.72;;;9.14;91.20
83246;BME280;73140;46.754;17.714;2023-11-21T06:54:40;99103.78;;;8.63;91.50
83246;BME280;73140;46.754;17.714;2023-11-21T06:57:06;99133.84;;;8.77;91.10
83246;BME280;73140;46.754;17.714;2023-11-21T06:59:33;99139.22;;;8.89;90.50
83246;BME280;73140;46.754;17.714;2023-11-21T07:01:59;99183.34;;;9.06;90.34
83246;BME280;73140;46.754;17.714;2023-11-21T07:04:26;99150.59;;;8.84;90.87
83246;BME280;73140;46.754;17.714;2023-11-21T07:06:52;99145.25;;;8.79;90.37
83246;BME280;73140;46.754;17.714;2023-11-21T07:09:18;99168.84;;;8.64;92.41
83246;BME280;73140;46.754;17.714;2023-11-21T07:11:47;99131.41;;;8.19;92.96
83246;BME280;73140;46.754;17.714;2023-11-21T07:14:14;99124.09;;;7.96;93.68
83246;BME280;73140;46.754;17.714;2023-11-21T07:16:41;99183.56;;;8.42;92.81
83246;BME280;73140;46.754;17.714;2023-11-21T07:19:07;99210.84;;;8.49;93.99
83246;BME280;73140;46.754;17.714;2023-11-21T07:21:34;99204.44;;;8.29;94.19
83246;BME280;73140;46.754;17.714;2023-11-21T07:24:00;99214.06;;;8.27;95.22
83246;BME280;73140;46.754;17.714;2023-11-21T07:26:26;99145.09;;;7.90;94.10
83246;BME280;73140;46.754;17.714;2023-11-21T07:28:53;99244.97;;;8.37;95.48
83246;BME280;73140;46.754;17.714;2023-11-21T07:31:19;99194.72;;;8.25;95.55
83246;BME280;73140;46.754;17.714;2023-11-21T07:33:46;99157.63;;;8.06;95.00
83246;BME280;73140;46.754;17.714;2023-11-21T07:36:16;99169.91;;;8.09;94.95
83246;BME280;73140;46.754;17.714;2023-11-21T07:38:49;99223.91;;;8.38;95.41
83246;BME280;73140;46.754;17.714;2023-11-21T07:41:15;99164.56;;;8.01;95.83
83246;BME280;73140;46.754;17.714;2023-11-21T07:43:43;99162.81;;;8.02;96.15
83246;BME280;73140;46.754;17.714;2023-11-21T07:46:09;99224.88;;;8.46;95.57
83246;BME280;73140;46.754;17.714;2023-11-21T07:48:35;99171.91;;;8.27;95.26
83246;BME280;73140;46.754;17.714;2023-11-21T07:51:03;99171.78;;;8.18;95.23
83246;BME280;73140;46.754;17.714;2023-11-21T07:53:29;99218.91;;;8.61;94.75
83246;BME280;73140;46.754;17.714;2023-11-21T07:55:55;99178.13;;;8.30;94.88
83246;BME280;73140;46.754;17.714;2023-11-21T07:58:21;99161.50;;;8.36;94.78
83246;BME280;73140;46.754;17.714;2023-11-21T08:00:48;99203.94;;;8.60;93.89
83246;BME280;73140;46.754;17.714;2023-11-21T08:03:14;99133.25;;;8.26;94.84
83246;BME280;73140;46.754;17.714;2023-11-21T08:05:40;99196.81;;;8.51;95.40
83246;BME280;73140;46.754;17.714;2023-11-21T08:08:08;99188.06;;;8.55;95.12
83246;BME280;73140;46.754;17.714;2023-11-21T08:10:34;99166.72;;;8.33;95.18
83246;BME280;73140;46.754;17.714;2023-11-21T08:13:01;99214.56;;;8.68;95.42
83246;BME280;73140;46.754;17.714;2023-11-21T08:15:27;99202.22;;;8.62;95.27
83246;BME280;73140;46.754;17.714;2023-11-21T08:17:53;99152.78;;;8.43;95.33
83246;BME280;73140;46.754;17.714;2023-11-21T08:20:19;99122.72;;;8.26;94.82
83246;BME280;73140;46.754;17.714;2023-11-21T08:22:45;99163.38;;;8.46;95.63
83246;BME280;73140;46.754;17.714;2023-11-21T08:25:15;99175.91;;;8.68;95.09
83246;BME280;73140;46.754;17.714;2023-11-21T08:27:41;99165.25;;;8.56;95.46
83246;BME280;73140;46.754;17.714;2023-11-21T08:30:07;99194.47;;;8.79;95.46
83246;BME280;73140;46.754;17.714;2023-11-21T08:32:34;99160.97;;;8.69;95.51
83246;BME280;73140;46.754;17.714;2023-11-21T08:35:00;99169.00;;;8.79;95.59
83246;BME280;73140;46.754;17.714;2023-11-21T08:37:27;99159.31;;;8.77;94.78
83246;BME280;73140;46.754;17.714;2023-11-21T08:39:58;99159.38;;;8.84;94.98
83246;BME280;73140;46.754;17.714;2023-11-21T08:42:26;99147.91;;;8.79;93.42
83246;BME280;73140;46.754;17.714;2023-11-21T08:44:55;99181.56;;;9.05;92.94
83246;BME280;73140;46.754;17.714;2023-11-21T08:47:23;99180.56;;;8.95;95.08
83246;BME280;73140;46.754;17.714;2023-11-21T08:49:56;99207.06;;;9.06;95.19
83246;BME280;73140;46.754;17.714;2023-11-21T08:52:24;99144.31;;;8.74;95.84
83246;BME280;73140;46.754;17.714;2023-11-21T08:54:50;99184.13;;;8.98;95.24
83246;BME280;73140;46.754;17.714;2023-11-21T08:57:22;99098.59;;;8.66;94.58
83246;BME280;73140;46.754;17.714;2023-11-21T08:59:49;99163.03;;;8.98;94.20
83246;BME280;73140;46.754;17.714;2023-11-21T09:02:21;99131.31;;;8.89;94.96
83246;BME280;73140;46.754;17.714;2023-11-21T09:04:54;99116.28;;;8.82;94.87
83246;BME280;73140;46.754;17.714;2023-11-21T09:07:22;99144.56;;;8.98;93.42
83246;BME280;73140;46.754;17.714;2023-11-21T09:09:48;99163.16;;;9.12;92.48
83246;BME280;73140;46.754;17.714;2023-11-21T09:12:15;99094.25;;;8.76;92.47
83246;BME280;73140;46.754;17.714;2023-11-21T09:14:42;99128.81;;;9.08;92.52
83246;BME280;73140;46.754;17.714;2023-11-21T09:17:10;99081.16;;;8.85;92.57
83246;BME280;73140;46.754;17.714;2023-11-21T09:19:37;99154.38;;;9.15;92.99
83246;BME280;73140;46.754;17.714;2023-11-21T09:22:05;99181.81;;;9.35;92.86
83246;BME280;73140;46.754;17.714;2023-11-21T09:24:31;99179.19;;;9.38;91.19
83246;BME280;73140;46.754;17.714;2023-11-21T09:26:57;99094.41;;;8.95;92.18
83246;BME280;73140;46.754;17.714;2023-11-21T09:29:23;99165.09;;;9.36;92.88
83246;BME280;73140;46.754;17.714;2023-11-21T09:31:49;99165.00;;;9.21;94.18
83246;BME280;73140;46.754;17.714;2023-11-21T09:34:18;99105.66;;;8.73;95.61
83246;BME280;73140;46.754;17.714;2023-11-21T09:36:46;99168.34;;;9.03;95.41
83246;BME280;73140;46.754;17.714;2023-11-21T09:39:15;99127.78;;;8.90;95.25
83246;BME280;73140;46.754;17.714;2023-11-21T09:41:44;99162.25;;;9.12;95.40
83246;BME280;73140;46.754;17.714;2023-11-21T09:44:18;99126.00;;;8.88;95.34
83246;BME280;73140;46.754;17.714;2023-11-21T09:46:48;99141.00;;;8.92;95.34
83246;BME280;73140;46.754;17.714;2023-11-21T09:49:22;99189.63;;;9.23;95.65
83246;BME280;73140;46.754;17.714;2023-11-21T09:51:53;99172.97;;;9.30;96.47
83246;BME280;73140;46.754;17.714;2023-11-21T09:54:21;99168.63;;;9.36;95.05
83246;BME280;73140;46.754;17.714;2023-11-21T09:56:50;99121.78;;;9.08;95.20
83246;BME280;73140;46.754;17.714;2023-11-21T09:59:30;99185.41;;;9.49;96.13
83246;BME280;73140;46.754;17.714;2023-11-21T10:02:03;99174.03;;;9.55;95.38
83246;BME280;73140;46.754;17.714;2023-11-21T10:04:35;99105.25;;;9.29;95.71
83246;BME280;73140;46.754;17.714;2023-11-21T10:07:11;99115.81;;;9.35;95.58
83246;BME280;73140;46.754;17.714;2023-11-21T10:09:45;99160.03;;;9.69;95.50
83246;BME280;73140;46.754;17.714;2023-11-21T10:12:19;99163.63;;;9.76;94.46
83246;BME280;73140;46.754;17.714;2023-11-21T10:14:48;99117.75;;;9.60;95.15
83246;BME280;73140;46.754;17.714;2023-11-21T10:17:45;99123.06;;;9.69;95.10
83246;BME280;73140;46.754;17.714;2023-11-21T10:20:28;99114.25;;;9.63;94.03
83246;BME280;73140;46.754;17.714;2023-11-21T10:22:55;99083.38;;;9.54;94.23
83246;BME280;73140;46.754;17.714;2023-11-21T10:25:25;99090.53;;;9.73;93.55
83246;BME280;73140;46.754;17.714;2023-11-21T10:27:59;99124.94;;;9.88;92.84
83246;BME280;73140;46.754;17.714;2023-11-21T10:30:33;99096.72;;;9.75;93.67
83246;BME280;73140;46.754;17.714;2023-11-21T10:33:03;99055.13;;;9.41;93.06
83246;BME280;73140;46.754;17.714;2023-11-21T10:35:42;99101.91;;;9.65;94.09
83246;BME280;73140;46.754;17.714;2023-11-21T10:38:12;99151.34;;;9.87;92.82
83246;BME280;73140;46.754;17.714;2023-11-21T10:40:40;99072.78;;;9.46;93.53
83246;BME280;73140;46.754;17.714;2023-11-21T10:43:08;99119.53;;;9.69;93.00
83246;BME280;73140;46.754;17.714;2023-11-21T10:45:40;99102.81;;;9.65;93.30
83246;BME280;73140;46.754;17.714;2023-11-21T10:48:12;99117.72;;;9.56;93.16
83246;BME280;73140;46.754;17.714;2023-11-21T10:50:42;99153.97;;;9.79;93.66
83246;BME280;73140;46.754;17.714;2023-11-21T10:53:09;99054.19;;;9.30;92.55
83246;BME280;73140;46.754;17.714;2023-11-21T10:55:35;99161.03;;;9.89;92.68
83246;BME280;73140;46.754;17.714;2023-11-21T10:58:02;99139.91;;;9.86;93.07
83246;BME280;73140;46.754;17.714;2023-11-21T11:00:31;99116.91;;;9.66;92.58
83246;BME280;73140;46.754;17.714;2023-11-21T11:02:57;99077.22;;;9.57;93.12
83246;BME280;73140;46.754;17.714;2023-11-21T11:05:25;99056.03;;;9.40;93.10
83246;BME280;73140;46.754;17.714;2023-11-21T11:07:59;99118.81;;;9.95;92.79
83246;BME280;73140;46.754;17.714;2023-11-21T11:10:27;99146.09;;;9.96;92.20
83246;BME280;73140;46.754;17.714;2023-11-21T11:12:55;99079.94;;;9.70;92.12
83246;BME280;73140;46.754;17.714;2023-11-21T11:15:23;99150.50;;;9.97;92.37
83246;BME280;73140;46.754;17.714;2023-11-21T11:17:51;99089.69;;;9.82;93.07
83246;BME280;73140;46.754;17.714;2023-11-21T11:20:20;99125.06;;;10.14;91.80
83246;BME280;73140;46.754;17.714;2023-11-21T11:22:55;99112.66;;;10.04;90.88
83246;BME280;73140;46.754;17.714;2023-11-21T11:25:40;99103.88;;;10.05;92.58
83246;BME280;73140;46.754;17.714;2023-11-21T11:28:14;99118.97;;;10.26;91.75
83246;BME280;73140;46.754;17.714;2023-11-21T11:30:53;99128.69;;;10.37;90.69
83246;BME280;73140;46.754;17.714;2023-11-21T11:33:35;99088.13;;;10.19;91.12
83246;BME280;73140;46.754;17.714;2023-11-21T11:36:06;99081.84;;;10.02;90.91
83246;BME280;73140;46.754;17.714;2023-11-21T11:38:34;99101.25;;;10.08;92.17
83246;BME280;73140;46.754;17.714;2023-11-21T11:41:04;99063.31;;;9.92;90.54
83246;BME280;73140;46.754;17.714;2023-11-21T11:43:30;99052.78;;;9.98;89.58
83246;BME280;73140;46.754;17.714;2023-11-21T11:45:58;99064.22;;;9.99;89.73
83246;BME280;73140;46.754;17.714;2023-11-21T11:48:25;99035.94;;;9.77;90.36
83246;BME280;73140;46.754;17.714;2023-11-21T11:51:11;99096.03;;;10.19;89.37
83246;BME280;73140;46.754;17.714;2023-11-21T11:53:41;99025.44;;;9.87;89.67
83246;BME280;73140;46.754;17.714;2023-11-21T11:56:28;99066.00;;;9.95;90.91
83246;BME280;73140;46.754;17.714;2023-11-21T11:58:56;99054.53;;;9.95;89.67
83246;BME280;73140;46.754;17.714;2023-11-21T12:01:24;99060.78;;;10.20;88.78
83246;BME280;73140;46.754;17.714;2023-11-21T12:07:00;99113.72;;;10.38;88.88
83246;BME280;73140;46.754;17.714;2023-11-21T12:09:28;99073.94;;;10.08;89.23
83246;BME280;73140;46.754;17.714;2023-11-21T12:11:59;99087.25;;;10.23;89.25
83246;BME280;73140;46.754;17.714;2023-11-21T12:14:26;99112.81;;;10.33;89.78
83246;BME280;73140;46.754;17.714;2023-11-21T12:16:52;99073.97;;;10.11;90.12
83246;BME280;73140;46.754;17.714;2023-11-21T12:19:18;99009.56;;;9.84;90.49
83246;BME280;73140;46.754;17.714;2023-11-21T12:21:44;99091.63;;;10.18;90.62
83246;BME280;73140;46.754;17.714;2023-11-21T12:24:10;99096.97;;;10.34;89.63
83246;BME280;73140;46.754;17.714;2023-11-21T12:26:39;99101.31;;;10.23;90.88
83246;BME280;73140;46.754;17.714;2023-11-21T12:29:07;99094.28;;;10.18;91.25
83246;BME280;73140;46.754;17.714;2023-11-21T12:31:36;99102.25;;;10.27;90.79
83246;BME280;73140;46.754;17.714;2023-11-21T12:34:02;99066.00;;;10.03;91.24
83246;BME280;73140;46.754;17.714;2023-11-21T12:36:29;99055.38;;;9.83;91.21
83246;BME280;73140;46.754;17.714;2023-11-21T12:38:56;99083.63;;;10.03;91.05
83246;BME280;73140;46.754;17.714;2023-11-21T12:41:22;99012.22;;;9.83;90.14
83246;BME280;73140;46.754;17.714;2023-11-21T12:43:48;99034.22;;;9.85;90.15
83246;BME280;73140;46.754;17.714;2023-11-21T12:46:16;98998.09;;;9.70;90.50
83246;BME280;73140;46.754;17.714;2023-11-21T12:48:44;99076.69;;;10.26;89.89
83246;BME280;73140;46.754;17.714;2023-11-21T12:51:11;99058.09;;;10.11;90.51
83246;BME280;73140;46.754;17.714;2023-11-21T12:53:38;99067.78;;;10.06;90.83
83246;BME280;73140;46.754;17.714;2023-11-21T12:56:07;99091.63;;;10.21;91.75
83246;BME280;73140;46.754;17.714;2023-11-21T12:58:35;99044.84;;;10.00;90.95
83246;BME280;73140;46.754;17.714;2023-11-21T13:01:01;99079.34;;;10.36;90.55
83246;BME280;73140;46.754;17.714;2023-11-21T13:03:32;99059.03;;;10.20;90.39
83246;BME280;73140;46.754;17.714;2023-11-21T13:05:58;99055.47;;;10.14;90.36
83246;BME280;73140;46.754;17.714;2023-11-21T13:08:28;99065.19;;;10.21;89.66